createdAt,value
2023-03-04T00:03:59.857Z,95313.00
2023-03-04T00:07:59.911Z,95315.00
2023-03-04T00:11:59.895Z,95315.00
2023-03-04T00:15:59.922Z,95315.00
2023-03-04T00:19:59.860Z,95317.00
2023-03-04T00:23:59.873Z,95315.00
2023-03-04T00:27:59.874Z,95317.00
2023-03-04T00:32:00.037Z,95315.00
2023-03-04T00:35:59.933Z,95317.00
2023-03-04T00:39:59.928Z,95325.00
2023-03-04T00:43:59.951Z,95323.00
2023-03-04T00:47:59.873Z,95323.00
2023-03-04T00:51:59.932Z,95323.00
2023-03-04T00:55:59.938Z,95323.00
2023-03-04T00:59:59.940Z,95317.00
2023-03-04T01:03:59.895Z,95311.00
2023-03-04T01:07:59.905Z,95306.00
2023-03-04T01:11:59.864Z,95304.00
2023-03-04T01:15:59.847Z,95298.00
2023-03-04T01:19:59.866Z,95298.00
2023-03-04T01:23:59.882Z,95294.00
2023-03-04T01:27:59.875Z,95294.00
2023-03-04T01:31:59.928Z,95292.00
2023-03-04T01:35:59.832Z,95288.00
2023-03-04T01:39:59.792Z,95286.00
2023-03-04T01:43:59.811Z,95282.00
2023-03-04T01:47:59.799Z,95282.00
2023-03-04T01:51:59.793Z,95280.00
2023-03-04T01:55:59.817Z,95280.00
2023-03-04T01:59:59.808Z,95280.00
2023-03-04T02:03:59.853Z,95278.00
2023-03-04T02:07:59.767Z,95268.00
2023-03-04T02:11:59.789Z,95268.00
2023-03-04T02:15:59.827Z,95260.00
2023-03-04T02:19:59.799Z,95259.00
2023-03-04T02:23:59.786Z,95255.00
2023-03-04T02:27:59.789Z,95249.00
2023-03-04T02:31:59.892Z,95245.00
2023-03-04T02:35:59.804Z,95243.00
2023-03-04T02:39:59.800Z,95241.00
2023-03-04T02:43:59.819Z,95235.00
2023-03-04T02:47:59.866Z,95233.00
2023-03-04T02:51:59.848Z,95237.00
2023-03-04T02:55:59.879Z,95237.00
2023-03-04T02:59:59.898Z,95233.00
2023-03-04T03:03:59.932Z,95237.00
2023-03-04T03:07:59.921Z,95239.00
2023-03-04T03:11:59.962Z,95233.00
2023-03-04T03:16:00.023Z,95237.00
2023-03-04T03:19:59.989Z,95239.00
2023-03-04T03:23:59.986Z,95237.00
2023-03-04T03:28:00.029Z,95237.00
2023-03-04T03:32:00.083Z,95237.00
2023-03-04T03:36:00.177Z,95235.00
2023-03-04T03:40:00.209Z,95235.00
2023-03-04T03:44:00.190Z,95233.00
2023-03-04T03:48:00.223Z,95235.00
2023-03-04T03:52:00.277Z,95233.00
2023-03-04T03:56:00.315Z,95233.00
2023-03-04T04:00:00.400Z,95235.00
2023-03-04T04:04:00.390Z,95233.00
2023-03-04T04:08:00.474Z,95237.00
2023-03-04T04:12:00.515Z,95237.00
2023-03-04T04:16:00.606Z,95239.00
2023-03-04T04:20:00.673Z,95237.00
2023-03-04T04:24:00.760Z,95237.00
2023-03-04T04:28:00.854Z,95237.00
2023-03-04T04:32:00.972Z,95237.00
2023-03-04T04:36:01.120Z,95239.00
2023-03-04T04:40:01.219Z,95237.00
2023-03-04T04:44:01.274Z,95237.00
2023-03-04T04:48:01.332Z,95243.00
2023-03-04T04:52:01.444Z,95241.00
2023-03-04T04:56:01.532Z,95243.00
2023-03-04T05:00:01.679Z,95241.00
2023-03-04T05:04:01.689Z,95241.00
2023-03-04T05:08:01.780Z,95241.00
2023-03-04T05:12:01.828Z,95245.00
2023-03-04T05:16:02.025Z,95247.00
2023-03-04T05:20:02.001Z,95245.00
2023-03-04T05:24:02.086Z,95247.00
2023-03-04T05:28:02.268Z,95247.00
2023-03-04T05:32:02.364Z,95249.00
2023-03-04T05:36:02.454Z,95249.00
2023-03-04T05:40:02.526Z,95249.00
2023-03-04T05:44:02.618Z,95251.00
2023-03-04T05:48:02.746Z,95253.00
2023-03-04T05:52:02.887Z,95255.00
2023-03-04T05:56:02.981Z,95259.00
2023-03-04T06:00:03.099Z,95259.00
2023-03-04T06:04:03.288Z,95262.00
2023-03-04T06:08:03.352Z,95266.00
2023-03-04T06:12:03.480Z,95272.00
2023-03-04T06:16:03.610Z,95276.00
2023-03-04T06:20:03.710Z,95278.00
2023-03-04T06:24:03.827Z,95278.00
2023-03-04T06:28:03.912Z,95284.00
2023-03-04T06:32:04.118Z,95286.00
2023-03-04T06:36:04.223Z,95288.00
2023-03-04T06:40:04.375Z,95288.00
2023-03-04T06:44:04.487Z,95290.00
2023-03-04T06:48:04.623Z,95296.00
2023-03-04T06:52:04.740Z,95300.00
2023-03-04T06:56:04.864Z,95298.00
2023-03-04T07:00:05.040Z,95304.00
2023-03-04T07:04:05.190Z,95309.00
2023-03-04T07:08:05.253Z,95311.00
2023-03-04T07:12:05.376Z,95313.00
2023-03-04T07:16:05.518Z,95315.00
2023-03-04T07:20:05.578Z,95317.00
2023-03-04T07:24:05.708Z,95321.00
2023-03-04T07:28:05.860Z,95323.00
2023-03-04T07:32:06.190Z,95323.00
2023-03-04T07:36:06.099Z,95321.00
2023-03-04T07:40:06.225Z,95323.00
2023-03-04T07:44:06.407Z,95325.00
2023-03-04T07:48:06.488Z,95319.00
2023-03-04T07:52:06.656Z,95315.00
2023-03-04T07:56:06.807Z,95315.00
2023-03-04T08:00:06.946Z,95311.00
2023-03-04T08:04:07.153Z,95309.00
2023-03-04T08:08:07.245Z,95309.00
2023-03-04T08:12:07.354Z,95302.00
2023-03-04T08:16:07.540Z,95296.00
2023-03-04T08:20:07.596Z,95298.00
2023-03-04T08:24:07.719Z,95292.00
2023-03-04T08:28:07.810Z,95292.00
2023-03-04T08:32:08.092Z,95290.00
2023-03-04T08:36:08.042Z,95290.00
2023-03-04T08:40:08.208Z,95284.00
2023-03-04T08:44:08.302Z,95280.00
2023-03-04T08:48:08.385Z,95278.00
2023-03-04T08:52:08.509Z,95278.00
2023-03-04T08:56:08.634Z,95272.00
2023-03-04T09:00:08.757Z,95270.00
2023-03-04T09:04:08.833Z,95266.00
2023-03-04T09:08:08.911Z,95260.00
2023-03-04T09:12:08.995Z,95257.00
2023-03-04T09:16:09.110Z,95253.00
2023-03-04T09:20:09.201Z,95251.00
2023-03-04T09:24:09.269Z,95245.00
2023-03-04T09:28:09.346Z,95235.00
2023-03-04T09:32:09.442Z,95235.00
2023-03-04T09:36:09.538Z,95231.00
2023-03-04T09:40:09.581Z,95221.00
2023-03-04T09:44:09.665Z,95213.00
2023-03-04T09:48:09.726Z,95211.00
2023-03-04T09:52:09.788Z,95207.00
2023-03-04T09:56:09.853Z,95204.00
2023-03-04T10:00:09.874Z,95202.00
2023-03-04T10:04:09.932Z,95200.00
2023-03-04T10:08:09.945Z,95194.00
2023-03-04T10:12:10.017Z,95186.00
2023-03-04T10:16:10.109Z,95174.00
2023-03-04T10:20:10.095Z,95168.00
2023-03-04T10:24:10.864Z,95160.00
2023-03-04T10:28:10.133Z,95155.00
2023-03-04T10:32:10.149Z,95151.00
2023-03-04T10:36:10.175Z,95139.00
2023-03-04T10:40:10.248Z,95133.00
2023-03-04T10:44:10.253Z,95127.00
2023-03-04T10:48:10.265Z,95117.00
2023-03-04T10:52:10.288Z,95113.00
2023-03-04T10:56:10.318Z,95109.00
2023-03-04T11:00:10.345Z,95102.00
2023-03-04T11:04:10.426Z,95094.00
2023-03-04T11:08:10.363Z,95090.00
2023-03-04T11:12:10.386Z,95082.00
2023-03-04T11:16:10.435Z,95082.00
2023-03-04T11:20:10.383Z,95074.00
2023-03-04T11:24:25.768Z,95074.00
2023-03-04T11:28:11.644Z,95066.00
2023-03-04T11:32:10.486Z,95062.00
2023-03-04T11:36:10.291Z,95058.00
2023-03-04T11:40:10.323Z,95062.00
2023-03-04T11:44:10.248Z,95051.00
2023-03-04T11:48:10.197Z,95045.00
2023-03-04T11:52:10.198Z,95039.00
2023-03-04T11:56:10.154Z,95025.00
2023-03-04T12:00:10.125Z,95019.00
2023-03-04T12:04:10.229Z,95011.00
2023-03-04T12:08:10.048Z,95004.00
2023-03-04T12:12:09.995Z,94996.00
2023-03-04T12:16:10.127Z,94988.00
2023-03-04T12:20:10.120Z,94980.00
2023-03-04T12:24:10.055Z,94972.00
2023-03-04T12:28:10.054Z,94968.00
2023-03-04T12:32:10.019Z,94951.00
2023-03-04T12:36:09.963Z,94945.00
2023-03-04T12:40:09.941Z,94941.00
2023-03-04T12:44:09.863Z,94935.00
2023-03-04T12:48:09.851Z,94927.00
2023-03-04T12:52:09.829Z,94919.00
2023-03-04T12:56:10.408Z,94913.00
2023-03-04T13:00:09.742Z,94912.00
2023-03-04T13:04:09.687Z,94908.00
2023-03-04T13:08:09.675Z,94898.00
2023-03-04T13:12:09.714Z,94886.00
2023-03-04T13:16:09.774Z,94880.00
2023-03-04T13:20:09.787Z,94876.00
2023-03-04T13:24:09.819Z,94876.00
2023-03-04T13:28:09.795Z,94870.00
2023-03-04T13:32:09.868Z,94863.00
2023-03-04T13:36:09.748Z,94853.00
2023-03-04T13:40:09.773Z,94847.00
2023-03-04T13:44:09.886Z,94839.00
2023-03-04T13:48:09.834Z,94839.00
2023-03-04T13:52:09.786Z,94835.00
2023-03-04T13:56:09.775Z,94835.00
2023-03-04T14:00:09.752Z,94829.00
2023-03-04T14:04:09.707Z,94823.00
2023-03-04T14:08:09.659Z,94823.00
2023-03-04T14:12:09.655Z,94817.00
2023-03-04T14:16:09.666Z,94808.00
2023-03-04T14:20:09.569Z,94810.00
2023-03-04T14:24:09.513Z,94804.00
2023-03-04T14:28:09.490Z,94804.00
2023-03-04T14:32:09.708Z,94800.00
2023-03-04T14:36:09.642Z,94792.00
2023-03-04T14:40:09.612Z,94790.00
2023-03-04T14:44:09.555Z,94790.00
2023-03-04T14:48:09.535Z,94782.00
2023-03-04T14:52:09.521Z,94778.00
2023-03-04T14:56:09.487Z,94778.00
2023-03-04T15:00:09.479Z,94774.00
2023-03-04T15:04:09.416Z,94774.00
2023-03-04T15:08:09.368Z,94778.00
2023-03-04T15:12:09.465Z,94780.00
2023-03-04T15:16:09.487Z,94780.00
2023-03-04T15:20:09.503Z,94782.00
2023-03-04T15:24:09.337Z,94788.00
2023-03-04T15:28:09.301Z,94788.00
2023-03-04T15:32:09.270Z,94786.00
2023-03-04T15:36:09.233Z,94788.00
2023-03-04T15:40:09.224Z,94782.00
2023-03-04T15:44:09.164Z,94790.00
2023-03-04T15:48:09.109Z,94792.00
2023-03-04T15:52:09.326Z,94792.00
2023-03-04T15:56:09.287Z,94794.00
2023-03-04T16:00:09.299Z,94792.00
2023-03-04T16:04:09.308Z,94792.00
2023-03-04T16:08:09.175Z,94792.00
2023-03-04T16:12:09.159Z,94796.00
2023-03-04T16:16:09.116Z,94802.00
2023-03-04T16:20:09.090Z,94802.00
2023-03-04T16:24:09.047Z,94806.00
2023-03-04T16:28:09.030Z,94810.00
2023-03-04T16:32:09.007Z,94810.00
2023-03-04T16:36:09.153Z,94817.00
2023-03-04T16:40:09.225Z,94821.00
2023-03-04T16:44:09.339Z,94823.00
2023-03-04T16:48:09.288Z,94825.00
2023-03-04T16:52:09.257Z,94827.00
2023-03-04T16:56:09.284Z,94837.00
2023-03-04T17:00:09.305Z,94843.00
2023-03-04T17:04:09.281Z,94847.00
2023-03-04T17:08:09.280Z,94845.00
2023-03-04T17:12:09.305Z,94847.00
2023-03-04T17:16:09.360Z,94857.00
2023-03-04T17:20:09.407Z,94861.00
2023-03-04T17:24:11.181Z,94868.00
2023-03-04T17:28:09.565Z,94880.00
2023-03-04T17:32:09.759Z,94884.00
2023-03-04T17:36:11.828Z,94896.00
2023-03-04T17:40:09.924Z,94906.00
2023-03-04T17:44:10.091Z,94910.00
2023-03-04T17:48:10.448Z,94913.00
2023-03-04T17:52:10.402Z,94915.00
2023-03-04T17:56:10.544Z,94921.00
2023-03-04T18:00:10.704Z,94921.00
2023-03-04T18:04:10.883Z,94927.00
2023-03-04T18:08:11.036Z,94933.00
2023-03-04T18:12:11.211Z,94939.00
2023-03-04T18:16:11.354Z,94939.00
2023-03-04T18:20:11.499Z,94949.00
2023-03-04T18:24:11.691Z,94951.00
2023-03-04T18:28:11.821Z,94953.00
2023-03-04T18:32:13.043Z,94955.00
2023-03-04T18:36:12.123Z,94953.00
2023-03-04T18:40:12.293Z,94959.00
2023-03-04T18:44:12.452Z,94959.00
2023-03-04T18:48:12.640Z,94960.00
2023-03-04T18:52:12.786Z,94964.00
2023-03-04T18:56:12.993Z,94966.00
2023-03-04T19:00:13.169Z,94966.00
2023-03-04T19:04:13.420Z,94976.00
2023-03-04T19:08:13.585Z,94982.00
2023-03-04T19:12:13.794Z,94988.00
2023-03-04T19:16:14.036Z,94990.00
2023-03-04T19:20:13.983Z,94992.00
2023-03-04T19:24:13.960Z,94998.00
2023-03-04T19:28:13.917Z,94998.00
2023-03-04T19:32:13.908Z,94998.00
2023-03-04T19:36:13.815Z,95002.00
2023-03-04T19:40:13.782Z,95006.00
2023-03-04T19:44:13.848Z,95006.00
2023-03-04T19:48:13.739Z,95008.00
2023-03-04T19:52:13.680Z,95008.00
2023-03-04T19:56:13.723Z,95011.00
2023-03-04T20:00:13.779Z,95011.00
2023-03-04T20:04:13.713Z,95013.00
2023-03-04T20:08:13.628Z,95013.00
2023-03-04T20:12:13.570Z,95017.00
2023-03-04T20:16:13.652Z,95019.00
2023-03-04T20:20:13.498Z,95023.00
2023-03-04T20:24:13.459Z,95021.00
2023-03-04T20:28:13.415Z,95019.00
2023-03-04T20:32:13.462Z,95025.00
2023-03-04T20:36:13.350Z,95027.00
2023-03-04T20:40:13.526Z,95027.00
2023-03-04T20:44:13.655Z,95027.00
2023-03-04T20:48:13.843Z,95031.00
2023-03-04T20:52:14.022Z,95029.00
2023-03-04T20:56:14.149Z,95035.00
2023-03-04T21:00:14.216Z,95039.00
2023-03-04T21:04:14.329Z,95045.00
2023-03-04T21:08:14.319Z,95049.00
2023-03-04T21:12:14.370Z,95057.00
2023-03-04T21:16:14.453Z,95060.00
2023-03-04T21:20:14.374Z,95058.00
2023-03-04T21:24:14.485Z,95058.00
2023-03-04T21:28:14.577Z,95060.00
2023-03-04T21:32:23.825Z,95057.00
2023-03-04T21:36:15.567Z,95058.00
2023-03-04T21:40:14.524Z,95060.00
2023-03-04T21:44:22.991Z,95060.00
2023-03-04T21:48:15.481Z,95060.00
2023-03-04T21:52:14.460Z,95062.00
2023-03-04T21:56:14.455Z,95064.00
2023-03-04T22:00:14.582Z,95062.00
2023-03-04T22:04:14.686Z,95062.00
2023-03-04T22:08:14.873Z,95058.00
2023-03-04T22:12:16.383Z,95058.00
2023-03-04T22:16:14.854Z,95057.00
2023-03-04T22:20:14.776Z,95057.00
2023-03-04T22:24:14.698Z,95057.00
2023-03-04T22:28:14.703Z,95055.00
2023-03-04T22:32:14.719Z,95053.00
2023-03-04T22:36:14.632Z,95051.00
2023-03-04T22:40:14.589Z,95053.00
2023-03-04T22:44:14.563Z,95053.00
2023-03-04T22:48:14.511Z,95047.00
2023-03-04T22:52:14.467Z,95047.00
2023-03-04T22:56:14.444Z,95051.00
2023-03-04T23:00:14.403Z,95049.00
2023-03-04T23:04:14.363Z,95051.00
2023-03-04T23:08:14.321Z,95053.00
2023-03-04T23:12:14.274Z,95058.00
2023-03-04T23:16:14.276Z,95060.00
2023-03-04T23:20:14.197Z,95060.00
2023-03-04T23:24:14.167Z,95064.00
2023-03-04T23:28:14.144Z,95066.00
2023-03-04T23:32:14.152Z,95070.00
2023-03-04T23:36:14.997Z,95072.00
2023-03-04T23:40:14.008Z,95068.00
2023-03-04T23:44:13.974Z,95072.00
2023-03-04T23:48:13.961Z,95074.00
2023-03-04T23:52:13.912Z,95074.00
2023-03-04T23:56:13.849Z,95078.00
